Time;durP1;ratioP1;P1;durP2;ratioP2;P2;SDS_P1;SDS_P2;PMS_P1;PMS_P2;Temp;Humidity;BMP_temperature;BMP_pressure;BME280_temperature;BME280_humidity;BME280_pressure;Samples;Min_cycle;Max_cycle;Signal;HPM_P1;HPM_P2
2022/04/04 00:01:30;;;;;;;7.75;2.42;;;;;;;;;;4963904;28;20109;-81
2022/04/04 00:03:56;;;;;;;2.65;0.98;;;;;;;;;;4980411;28;20065;-81
2022/04/04 00:06:22;;;;;;;3.72;1.77;;;;;;;;;;4961553;28;20126;-81
2022/04/04 00:08:48;;;;;;;5.03;2.17;;;;;;;;;;4964601;28;20033;-81
2022/04/04 00:11:15;;;;;;;1.33;1.20;;;;;;;;;;4965239;28;20237;-81
2022/04/04 00:13:41;;;;;;;4.32;2.38;;;;;;;;;;4961403;28;20034;-80
2022/04/04 00:16:07;;;;;;;1.67;1.30;;;;;;;;;;4974528;28;20042;-81
2022/04/04 00:18:34;;;;;;;5.03;2.35;;;;;;;;;;4958452;28;20315;-81
2022/04/04 00:21:00;;;;;;;2.60;1.50;;;;;;;;;;4975239;28;20034;-81
2022/04/04 00:23:26;;;;;;;7.53;2.72;;;;;;;;;;4976999;28;20049;-81
2022/04/04 00:25:52;;;;;;;4.97;2.40;;;;;;;;;;4972680;28;20034;-81
2022/04/04 00:28:18;;;;;;;3.83;2.28;;;;;;;;;;4961094;28;20077;-81
2022/04/04 00:30:45;;;;;;;1.85;1.38;;;;;;;;;;4960983;28;20042;-82
2022/04/04 00:33:11;;;;;;;3.92;2.30;;;;;;;;;;4958518;28;20896;-81
2022/04/04 00:35:37;;;;;;;2.28;1.52;;;;;;;;;;4974531;28;20510;-81
2022/04/04 00:38:04;;;;;;;5.25;2.65;;;;;;;;;;4967784;28;20371;-81
2022/04/04 00:40:30;;;;;;;4.32;2.30;;;;;;;;;;4975901;28;20568;-81
2022/04/04 00:42:57;;;;;;;2.80;1.67;;;;;;;;;;4958763;28;20046;-81
2022/04/04 00:45:23;;;;;;;1.77;1.25;;;;;;;;;;4977627;28;20091;-80
2022/04/04 00:47:49;;;;;;;6.22;2.38;;;;;;;;;;4978488;28;20069;-81
2022/04/04 00:50:15;;;;;;;4.05;2.53;;;;;;;;;;4958869;28;20790;-80
2022/04/04 00:52:41;;;;;;;4.15;2.35;;;;;;;;;;4956262;28;20044;-81
2022/04/04 00:55:07;;;;;;;3.22;1.75;;;;;;;;;;4972844;28;20158;-81
2022/04/04 00:57:34;;;;;;;8.77;2.85;;;;;;;;;;4974528;28;20041;-81
2022/04/04 01:00:00;;;;;;;2.92;1.35;;;;;;;;;;4977317;28;20084;-81
2022/04/04 01:02:26;;;;;;;2.33;1.73;;;;;;;;;;4959165;28;20046;-81
2022/04/04 01:04:52;;;;;;;2.47;1.70;;;;;;;;;;4972493;28;20026;-80
2022/04/04 01:07:18;;;;;;;5.70;2.60;;;;;;;;;;4978825;28;20549;-81
2022/04/04 01:09:44;;;;;;;4.68;2.30;;;;;;;;;;4974293;28;20571;-81
2022/04/04 01:12:11;;;;;;;5.22;2.70;;;;;;;;;;4941365;28;20026;-81
2022/04/04 01:14:39;;;;;;;7.03;3.20;;;;;;;;;;4946375;28;20101;-81
2022/04/04 01:17:06;;;;;;;9.98;3.97;;;;;;;;;;4937567;28;20193;-81
2022/04/04 01:19:32;;;;;;;7.75;3.80;;;;;;;;;;4945841;28;20035;-81
2022/04/04 01:21:58;;;;;;;5.28;3.45;;;;;;;;;;4942087;28;20580;-81
2022/04/04 01:24:25;;;;;;;3.90;1.65;;;;;;;;;;4937277;28;20035;-81
2022/04/04 01:26:52;;;;;;;10.43;3.47;;;;;;;;;;4943375;28;20032;-81
2022/04/04 01:29:20;;;;;;;9.23;2.97;;;;;;;;;;4945454;28;20031;-81
2022/04/04 01:31:46;;;;;;;9.07;3.35;;;;;;;;;;4945255;28;20023;-80
2022/04/04 01:34:12;;;;;;;4.55;2.85;;;;;;;;;;4940777;28;20039;-80
2022/04/04 01:36:38;;;;;;;6.85;2.88;;;;;;;;;;4953203;28;20144;-81
2022/04/04 01:39:05;;;;;;;8.38;3.78;;;;;;;;;;4943797;28;20605;-81
2022/04/04 01:41:31;;;;;;;8.40;3.13;;;;;;;;;;4934515;28;20077;-82
2022/04/04 01:43:57;;;;;;;14.63;5.60;;;;;;;;;;4956393;28;20027;-81
2022/04/04 01:46:29;;;;;;;9.60;4.72;;;;;;;;;;4956450;28;20424;-81
2022/04/04 01:48:56;;;;;;;12.38;5.82;;;;;;;;;;4957650;28;23150;-81
2022/04/04 01:51:22;;;;;;;9.75;5.30;;;;;;;;;;4941873;28;20031;-81
2022/04/04 01:53:49;;;;;;;12.57;4.78;;;;;;;;;;4942450;28;20041;-81
2022/04/04 01:56:15;;;;;;;6.10;3.08;;;;;;;;;;4942644;28;20026;-80
2022/04/04 01:58:41;;;;;;;13.63;4.95;;;;;;;;;;4958517;28;20031;-81
2022/04/04 02:01:18;;;;;;;11.27;5.25;;;;;;;;;;4943159;28;20042;-80
2022/04/04 02:03:45;;;;;;;13.80;7.18;;;;;;;;;;4958585;28;20023;-81
2022/04/04 02:06:11;;;;;;;10.23;4.05;;;;;;;;;;4944511;28;20109;-81
2022/04/04 02:08:37;;;;;;;16.55;7.47;;;;;;;;;;4940345;28;20038;-81
2022/04/04 02:11:04;;;;;;;17.30;4.40;;;;;;;;;;4959468;28;20042;-80
2022/04/04 02:13:31;;;;;;;15.23;6.85;;;;;;;;;;4979819;28;20056;-81
2022/04/04 02:16:00;;;;;;;11.90;6.45;;;;;;;;;;4963367;28;20508;-81
2022/04/04 02:18:26;;;;;;;11.98;5.57;;;;;;;;;;4961741;28;20561;-80
2022/04/04 02:20:52;;;;;;;12.57;5.10;;;;;;;;;;4981292;28;20515;-81
2022/04/04 02:23:20;;;;;;;13.75;6.28;;;;;;;;;;4974406;28;20034;-81
2022/04/04 02:25:46;;;;;;;7.28;4.10;;;;;;;;;;4961855;28;20022;-81
2022/04/04 02:28:13;;;;;;;12.82;6.55;;;;;;;;;;4971538;28;20035;-81
2022/04/04 02:30:39;;;;;;;24.25;6.88;;;;;;;;;;4965545;28;20030;-81
2022/04/04 02:33:05;;;;;;;17.98;6.55;;;;;;;;;;4983340;28;20034;-81
2022/04/04 02:35:31;;;;;;;10.95;6.55;;;;;;;;;;4978554;28;21325;-81
2022/04/04 02:37:57;;;;;;;15.70;8.32;;;;;;;;;;4966503;28;20161;-81
2022/04/04 02:40:23;;;;;;;17.77;7.38;;;;;;;;;;4966146;28;20030;-81
2022/04/04 02:42:49;;;;;;;12.60;6.55;;;;;;;;;;4964219;28;20034;-80
2022/04/04 02:45:22;;;;;;;11.77;6.75;;;;;;;;;;4961150;28;20161;-80
2022/04/04 02:47:48;;;;;;;11.80;5.38;;;;;;;;;;4978494;28;20030;-81
2022/04/04 02:50:15;;;;;;;12.05;6.18;;;;;;;;;;4964753;28;20031;-81
2022/04/04 02:52:41;;;;;;;15.38;7.72;;;;;;;;;;4980041;28;20507;-81
2022/04/04 02:57:56;;;;;;;19.98;8.55;;;;;;;;;;4940340;28;20043;-80
2022/04/04 03:00:26;;;;;;;13.05;7.15;;;;;;;;;;4981327;28;20038;-81
2022/04/04 03:02:56;;;;;;;11.23;5.65;;;;;;;;;;4963614;28;20375;-81
2022/04/04 03:05:22;;;;;;;9.90;6.40;;;;;;;;;;4979697;28;20066;-81
2022/04/04 03:07:48;;;;;;;15.50;6.85;;;;;;;;;;4981065;28;20600;-81
2022/04/04 03:10:15;;;;;;;10.40;6.10;;;;;;;;;;4966353;28;20045;-81
2022/04/04 03:12:45;;;;;;;12.90;7.90;;;;;;;;;;4982994;28;20038;-81
2022/04/04 03:15:12;;;;;;;10.60;6.20;;;;;;;;;;4980713;28;20734;-80
2022/04/04 03:17:39;;;;;;;15.98;7.45;;;;;;;;;;4978607;28;20707;-81
2022/04/04 03:20:09;;;;;;;17.58;7.38;;;;;;;;;;4962800;28;20034;-81
2022/04/04 03:22:35;;;;;;;22.38;7.57;;;;;;;;;;4963208;28;20046;-80
2022/04/04 03:25:01;;;;;;;10.65;5.80;;;;;;;;;;4964686;28;20053;-81
2022/04/04 03:27:27;;;;;;;23.15;10.30;;;;;;;;;;4965595;28;20447;-81
2022/04/04 03:29:53;;;;;;;14.55;5.95;;;;;;;;;;4964696;28;20074;-80
2022/04/04 03:32:19;;;;;;;19.40;8.73;;;;;;;;;;4968468;28;20085;-80
2022/04/04 03:34:45;;;;;;;14.55;6.25;;;;;;;;;;4976854;28;20035;-80
2022/04/04 03:37:11;;;;;;;13.25;8.00;;;;;;;;;;4981360;28;20034;-80
2022/04/04 03:39:37;;;;;;;16.15;7.43;;;;;;;;;;4978819;28;20041;-80
2022/04/04 03:42:03;;;;;;;12.57;5.55;;;;;;;;;;4960030;28;20121;-81
2022/04/04 03:44:30;;;;;;;17.30;7.93;;;;;;;;;;4965092;28;20121;-80
2022/04/04 03:46:56;;;;;;;18.30;7.30;;;;;;;;;;4965812;28;20072;-80
2022/04/04 03:49:22;;;;;;;10.98;6.13;;;;;;;;;;4979392;28;20047;-80
2022/04/04 03:51:49;;;;;;;15.88;7.47;;;;;;;;;;4961196;28;20042;-81
2022/04/04 03:54:15;;;;;;;16.58;7.57;;;;;;;;;;4961823;28;20034;-81
2022/04/04 03:56:41;;;;;;;23.83;8.38;;;;;;;;;;4965214;28;20095;-81
2022/04/04 03:59:07;;;;;;;15.23;5.82;;;;;;;;;;4979418;28;20030;-80
2022/04/04 04:01:34;;;;;;;14.75;6.75;;;;;;;;;;4965855;28;20063;-81
2022/04/04 04:04:00;;;;;;;16.30;6.82;;;;;;;;;;4961636;28;20022;-81
2022/04/04 04:06:26;;;;;;;19.90;10.05;;;;;;;;;;4983709;28;20023;-81
2022/04/04 04:08:53;;;;;;;20.13;9.00;;;;;;;;;;4980441;28;20015;-81
2022/04/04 04:11:20;;;;;;;24.90;10.63;;;;;;;;;;4964816;28;20057;-82
2022/04/04 04:13:47;;;;;;;21.70;7.50;;;;;;;;;;4980181;28;20189;-82
2022/04/04 04:16:13;;;;;;;11.70;6.28;;;;;;;;;;4961301;28;20836;-81
2022/04/04 04:18:42;;;;;;;14.40;7.10;;;;;;;;;;4964190;28;20125;-81
2022/04/04 04:21:09;;;;;;;21.25;10.20;;;;;;;;;;4965720;28;20076;-81
2022/04/04 04:23:36;;;;;;;13.50;7.40;;;;;;;;;;4962623;28;20065;-81
2022/04/04 04:26:04;;;;;;;16.02;8.48;;;;;;;;;;4965686;28;20065;-81
2022/04/04 04:28:31;;;;;;;16.42;8.48;;;;;;;;;;4964358;28;20252;-80
2022/04/04 04:30:57;;;;;;;34.38;8.43;;;;;;;;;;4965349;28;20034;-80
2022/04/04 04:33:24;;;;;;;27.40;11.25;;;;;;;;;;4978282;28;20454;-80
2022/04/04 04:35:50;;;;;;;18.05;7.63;;;;;;;;;;4962634;28;20038;-80
2022/04/04 04:38:16;;;;;;;20.25;9.30;;;;;;;;;;4961441;28;20066;-79
2022/04/04 04:40:42;;;;;;;12.82;6.95;;;;;;;;;;4982088;28;20521;-79
2022/04/04 04:43:09;;;;;;;15.88;6.97;;;;;;;;;;4983824;28;20564;-80
2022/04/04 04:45:35;;;;;;;9.98;5.72;;;;;;;;;;4975447;28;20444;-80
2022/04/04 04:48:02;;;;;;;17.10;7.72;;;;;;;;;;4962565;28;20030;-80
2022/04/04 04:50:35;;;;;;;17.20;8.07;;;;;;;;;;4962591;28;20030;-80
2022/04/04 04:53:02;;;;;;;19.52;7.57;;;;;;;;;;4961857;28;20030;-79
2022/04/04 04:55:28;;;;;;;16.50;6.95;;;;;;;;;;4966305;28;20061;-79
2022/04/04 04:57:54;;;;;;;15.75;7.95;;;;;;;;;;4962747;28;20037;-78
2022/04/04 05:00:22;;;;;;;25.05;9.70;;;;;;;;;;4970202;28;20644;-79
2022/04/04 05:03:24;;;;;;;17.90;9.50;;;;;;;;;;4957207;28;20034;-79
2022/04/04 05:05:35;;;;;;;15.00;7.32;;;;;;;;;;4976066;28;20034;-79
2022/04/04 05:08:00;;;;;;;27.05;8.63;;;;;;;;;;4962821;28;20526;-80
2022/04/04 05:10:40;;;;;;;32.47;11.60;;;;;;;;;;4960011;28;20186;-79
2022/04/04 05:13:13;;;;;;;18.08;7.28;;;;;;;;;;4943958;28;20105;-80
2022/04/04 05:15:40;;;;;;;25.05;6.82;;;;;;;;;;4937714;28;20069;-79
2022/04/04 05:18:06;;;;;;;20.85;9.13;;;;;;;;;;4960836;28;20125;-79
2022/04/04 05:20:32;;;;;;;19.13;8.48;;;;;;;;;;4941986;28;20481;-79
2022/04/04 05:22:58;;;;;;;15.13;6.20;;;;;;;;;;4955558;28;20842;-79
2022/04/04 05:25:25;;;;;;;7.93;4.75;;;;;;;;;;4940312;28;20034;-80
2022/04/04 05:27:52;;;;;;;27.08;12.00;;;;;;;;;;4956392;28;20113;-79
2022/04/04 05:30:18;;;;;;;21.40;9.30;;;;;;;;;;4942220;28;20122;-79
2022/04/04 05:32:44;;;;;;;20.67;6.20;;;;;;;;;;4936453;28;20127;-79
2022/04/04 05:35:15;;;;;;;16.90;7.80;;;;;;;;;;4935693;28;20402;-79
2022/04/04 05:37:42;;;;;;;12.18;6.07;;;;;;;;;;4940221;28;20470;-79
2022/04/04 05:40:08;;;;;;;18.52;6.90;;;;;;;;;;4942107;28;20072;-79
2022/04/04 05:42:34;;;;;;;10.85;5.93;;;;;;;;;;4943644;28;20470;-79
2022/04/04 05:45:00;;;;;;;13.25;5.40;;;;;;;;;;4955388;28;20035;-79
2022/04/04 05:47:27;;;;;;;35.13;6.38;;;;;;;;;;4958421;28;20035;-79
2022/04/04 05:49:53;;;;;;;24.05;5.95;;;;;;;;;;4954589;28;20047;-79
2022/04/04 05:52:20;;;;;;;12.32;6.30;;;;;;;;;;4939027;28;20122;-79
2022/04/04 05:54:59;;;;;;;20.95;6.07;;;;;;;;;;4959392;28;20046;-78
2022/04/04 05:57:26;;;;;;;13.15;6.55;;;;;;;;;;4935303;28;20030;-79
2022/04/04 05:59:52;;;;;;;14.32;6.35;;;;;;;;;;4935876;28;20120;-78
2022/04/04 06:02:19;;;;;;;8.23;3.53;;;;;;;;;;4935639;28;20041;-79
2022/04/04 06:04:46;;;;;;;19.17;5.85;;;;;;;;;;4950176;28;20114;-77
2022/04/04 06:07:12;;;;;;;23.35;6.00;;;;;;;;;;4937601;28;20637;-78
2022/04/04 06:09:38;;;;;;;8.45;4.25;;;;;;;;;;4953593;28;21568;-78
2022/04/04 06:12:04;;;;;;;13.25;4.57;;;;;;;;;;4967659;28;20051;-80
2022/04/04 06:14:30;;;;;;;8.13;4.07;;;;;;;;;;4972789;28;20028;-78
2022/04/04 06:16:56;;;;;;;9.20;3.97;;;;;;;;;;4962827;28;20034;-78
2022/04/04 06:19:22;;;;;;;7.28;3.55;;;;;;;;;;4959607;28;20084;-79
2022/04/04 06:21:48;;;;;;;10.07;3.50;;;;;;;;;;4972452;28;20718;-78
2022/04/04 06:24:15;;;;;;;9.57;3.45;;;;;;;;;;4964388;28;20421;-79
2022/04/04 06:26:41;;;;;;;9.68;2.35;;;;;;;;;;4976570;28;20066;-79
2022/04/04 06:29:11;;;;;;;5.22;2.28;;;;;;;;;;4978093;28;20039;-79
2022/04/04 06:31:37;;;;;;;7.55;2.85;;;;;;;;;;4961984;28;20120;-79
2022/04/04 06:34:08;;;;;;;7.47;4.03;;;;;;;;;;4958963;28;20479;-79
2022/04/04 06:36:34;;;;;;;8.32;4.30;;;;;;;;;;4976286;28;20155;-79
2022/04/04 06:39:00;;;;;;;7.35;2.92;;;;;;;;;;4961927;28;20042;-80
2022/04/04 06:41:26;;;;;;;10.77;2.47;;;;;;;;;;4959978;28;20137;-80
2022/04/04 06:43:53;;;;;;;6.53;2.60;;;;;;;;;;4977919;28;20109;-80
2022/04/04 06:46:19;;;;;;;3.78;2.35;;;;;;;;;;4976526;28;20188;-80
2022/04/04 06:48:45;;;;;;;4.43;3.17;;;;;;;;;;4961886;28;20042;-80
2022/04/04 06:51:12;;;;;;;8.75;3.45;;;;;;;;;;4961350;28;20031;-80
2022/04/04 06:53:38;;;;;;;11.93;3.33;;;;;;;;;;4970600;28;20035;-80
2022/04/04 06:56:05;;;;;;;7.47;3.80;;;;;;;;;;4962024;28;20038;-81
2022/04/04 06:58:31;;;;;;;4.60;2.70;;;;;;;;;;4956644;28;20042;-80
2022/04/04 07:00:57;;;;;;;6.82;2.28;;;;;;;;;;4971023;28;20035;-81
2022/04/04 07:03:24;;;;;;;10.88;2.72;;;;;;;;;;4961652;28;20091;-81
2022/04/04 07:05:50;;;;;;;4.65;2.67;;;;;;;;;;4960636;28;20057;-80
2022/04/04 07:08:16;;;;;;;7.40;3.47;;;;;;;;;;4957502;28;21019;-80
2022/04/04 07:10:43;;;;;;;6.57;3.50;;;;;;;;;;4977490;28;20034;-80
2022/04/04 07:13:09;;;;;;;7.93;4.28;;;;;;;;;;4961074;28;20090;-80
2022/04/04 07:15:35;;;;;;;5.05;2.90;;;;;;;;;;4962398;28;20062;-80
2022/04/04 07:18:01;;;;;;;8.40;3.35;;;;;;;;;;4974973;28;20035;-80
2022/04/04 07:20:27;;;;;;;5.30;2.83;;;;;;;;;;4961676;28;20069;-80
2022/04/04 07:22:54;;;;;;;5.78;3.38;;;;;;;;;;4965688;28;20106;-80
2022/04/04 07:25:21;;;;;;;9.25;4.75;;;;;;;;;;4962104;28;20085;-80
2022/04/04 07:27:49;;;;;;;5.32;2.97;;;;;;;;;;4980219;28;20393;-80
2022/04/04 07:30:17;;;;;;;9.98;5.00;;;;;;;;;;4963260;28;20034;-80
2022/04/04 07:32:43;;;;;;;14.05;4.97;;;;;;;;;;4977462;28;20045;-80
2022/04/04 07:35:11;;;;;;;18.08;5.00;;;;;;;;;;4981341;28;20045;-80
2022/04/04 07:37:37;;;;;;;15.88;3.80;;;;;;;;;;4960629;28;20037;-80
2022/04/04 07:40:06;;;;;;;7.45;3.92;;;;;;;;;;4960944;28;20031;-81
2022/04/04 07:42:32;;;;;;;23.60;5.28;;;;;;;;;;4975710;28;20116;-80
2022/04/04 07:44:58;;;;;;;10.07;5.25;;;;;;;;;;4966825;28;20084;-81
2022/04/04 07:47:24;;;;;;;9.55;4.85;;;;;;;;;;4976522;28;20026;-80
2022/04/04 07:49:50;;;;;;;7.70;4.82;;;;;;;;;;4959437;28;20490;-80
2022/04/04 07:52:17;;;;;;;6.15;3.47;;;;;;;;;;4964454;28;20041;-80
2022/04/04 07:54:43;;;;;;;14.30;4.32;;;;;;;;;;4962673;28;20039;-80
2022/04/04 07:57:09;;;;;;;12.82;3.92;;;;;;;;;;4965881;28;20080;-81
2022/04/04 07:59:36;;;;;;;14.27;3.88;;;;;;;;;;4980191;28;20145;-81
2022/04/04 08:02:06;;;;;;;5.75;3.70;;;;;;;;;;4978697;28;20027;-80
2022/04/04 08:04:32;;;;;;;12.35;4.63;;;;;;;;;;4977231;28;20111;-82
2022/04/04 08:06:57;;;;;;;8.30;3.90;;;;;;;;;;4974068;28;20102;-81
2022/04/04 08:09:23;;;;;;;21.17;3.63;;;;;;;;;;4960709;28;20030;-82
2022/04/04 08:11:51;;;;;;;8.95;3.55;;;;;;;;;;4969211;28;20074;-81
2022/04/04 08:14:17;;;;;;;8.10;4.85;;;;;;;;;;4978539;28;20593;-81
2022/04/04 08:16:43;;;;;;;9.02;3.97;;;;;;;;;;4964712;28;20181;-81
2022/04/04 08:19:09;;;;;;;11.30;4.18;;;;;;;;;;4980255;28;20031;-81
2022/04/04 08:21:35;;;;;;;11.30;4.47;;;;;;;;;;4974522;28;20130;-81
2022/04/04 08:24:01;;;;;;;7.38;3.65;;;;;;;;;;4967803;28;20054;-81
2022/04/04 08:26:27;;;;;;;4.43;2.55;;;;;;;;;;4968028;28;20030;-81
2022/04/04 08:28:53;;;;;;;6.05;3.08;;;;;;;;;;4965150;28;20461;-82
2022/04/04 08:31:19;;;;;;;5.07;2.60;;;;;;;;;;4962344;28;20033;-81
2022/04/04 08:33:51;;;;;;;7.15;3.95;;;;;;;;;;4960617;28;20720;-82
2022/04/04 08:36:18;;;;;;;4.25;2.60;;;;;;;;;;4963174;28;20030;-81
2022/04/04 08:38:44;;;;;;;11.00;3.63;;;;;;;;;;4962912;28;20037;-82
2022/04/04 08:41:11;;;;;;;4.60;2.05;;;;;;;;;;4962664;28;20101;-81
2022/04/04 08:43:38;;;;;;;7.65;3.25;;;;;;;;;;4963953;28;20030;-82
2022/04/04 08:46:06;;;;;;;4.15;2.65;;;;;;;;;;4959665;28;20114;-82
2022/04/04 08:48:36;;;;;;;5.30;2.47;;;;;;;;;;4968651;28;20034;-82
2022/04/04 08:51:02;;;;;;;5.93;1.75;;;;;;;;;;4966248;28;20026;-82
2022/04/04 08:53:29;;;;;;;3.17;1.60;;;;;;;;;;4964671;28;20042;-82
2022/04/04 08:55:57;;;;;;;14.23;1.95;;;;;;;;;;4981217;28;20072;-81
2022/04/04 08:58:24;;;;;;;4.90;2.70;;;;;;;;;;4982039;28;20121;-81
2022/04/04 09:00:50;;;;;;;9.65;2.17;;;;;;;;;;4964908;28;20031;-82
2022/04/04 09:03:20;;;;;;;2.80;2.15;;;;;;;;;;4975569;28;20030;-82
2022/04/04 09:05:50;;;;;;;1.95;1.50;;;;;;;;;;4967961;28;20487;-81
2022/04/04 09:08:18;;;;;;;4.75;1.75;;;;;;;;;;4978987;28;20064;-81
2022/04/04 09:10:45;;;;;;;4.07;2.20;;;;;;;;;;4980564;28;20038;-81
2022/04/04 09:13:19;;;;;;;6.10;3.15;;;;;;;;;;4966494;28;20050;-80
2022/04/04 09:15:52;;;;;;;3.67;2.22;;;;;;;;;;4971057;28;20034;-80
2022/04/04 09:18:19;;;;;;;6.97;2.15;;;;;;;;;;4983308;28;20030;-80
2022/04/04 09:20:49;;;;;;;7.60;2.17;;;;;;;;;;4979133;28;20046;-80
2022/04/04 09:23:15;;;;;;;4.22;2.22;;;;;;;;;;4979810;28;20034;-80
2022/04/04 09:25:41;;;;;;;5.05;2.22;;;;;;;;;;4961402;28;20028;-80
2022/04/04 09:28:18;;;;;;;6.78;2.08;;;;;;;;;;4983929;28;20535;-80
2022/04/04 09:30:45;;;;;;;4.20;2.10;;;;;;;;;;4958620;28;20560;-81
2022/04/04 09:33:14;;;;;;;4.05;1.75;;;;;;;;;;4966250;28;20044;-81
2022/04/04 09:35:47;;;;;;;2.13;1.48;;;;;;;;;;4986024;28;20057;-81
2022/04/04 09:38:14;;;;;;;2.15;1.42;;;;;;;;;;4961066;28;20042;-80
2022/04/04 09:40:41;;;;;;;6.68;1.80;;;;;;;;;;4960315;28;20038;-80
2022/04/04 09:43:07;;;;;;;3.22;2.30;;;;;;;;;;4963597;28;20038;-80
2022/04/04 09:45:33;;;;;;;2.58;1.80;;;;;;;;;;4977885;28;20097;-79
2022/04/04 09:48:01;;;;;;;4.32;2.10;;;;;;;;;;4977710;28;20494;-80
2022/04/04 09:50:31;;;;;;;2.53;1.48;;;;;;;;;;4962905;28;20117;-81
2022/04/04 09:52:57;;;;;;;1.95;1.23;;;;;;;;;;4965085;28;20073;-80
2022/04/04 09:55:27;;;;;;;3.42;1.33;;;;;;;;;;4978513;28;20864;-80
2022/04/04 09:57:54;;;;;;;5.65;1.42;;;;;;;;;;4972992;28;20034;-80
2022/04/04 10:00:21;;;;;;;3.67;2.15;;;;;;;;;;4953595;28;20766;-81
2022/04/04 10:02:47;;;;;;;3.05;1.13;;;;;;;;;;4970324;28;20136;-80
2022/04/04 10:05:14;;;;;;;7.88;1.60;;;;;;;;;;4959631;28;20401;-80
2022/04/04 10:07:41;;;;;;;9.30;1.92;;;;;;;;;;4957020;28;20498;-81
2022/04/04 10:10:07;;;;;;;3.83;1.90;;;;;;;;;;4961355;28;20034;-81
2022/04/04 10:12:34;;;;;;;1.88;1.55;;;;;;;;;;4974329;28;20042;-80
2022/04/04 10:15:03;;;;;;;3.78;1.23;;;;;;;;;;4971292;28;21143;-81
2022/04/04 10:17:30;;;;;;;8.88;1.70;;;;;;;;;;4973809;28;20081;-81
2022/04/04 10:19:57;;;;;;;2.63;1.42;;;;;;;;;;4959698;28;20511;-81
2022/04/04 10:22:24;;;;;;;6.05;2.08;;;;;;;;;;4968256;28;20786;-81
2022/04/04 10:24:50;;;;;;;4.78;2.35;;;;;;;;;;4973442;28;20045;-81
2022/04/04 10:27:20;;;;;;;5.95;1.63;;;;;;;;;;4953930;28;20502;-80
2022/04/04 10:29:48;;;;;;;3.50;1.40;;;;;;;;;;4969138;28;20492;-80
2022/04/04 10:32:28;;;;;;;2.33;1.27;;;;;;;;;;4954793;28;20031;-81
2022/04/04 10:34:58;;;;;;;3.42;1.27;;;;;;;;;;4966932;28;20095;-81
2022/04/04 10:37:31;;;;;;;2.13;0.93;;;;;;;;;;4971179;28;20113;-80
2022/04/04 10:39:57;;;;;;;1.90;0.90;;;;;;;;;;4956588;28;20034;-80
2022/04/04 10:42:43;;;;;;;2.15;1.13;;;;;;;;;;4968912;28;20042;-81
2022/04/04 10:45:11;;;;;;;1.60;1.45;;;;;;;;;;4954675;28;20032;-81
2022/04/04 10:47:44;;;;;;;2.47;1.42;;;;;;;;;;4959451;28;20563;-81
2022/04/04 10:50:21;;;;;;;1.85;1.10;;;;;;;;;;4968033;28;20109;-81
2022/04/04 10:52:47;;;;;;;1.77;1.02;;;;;;;;;;4974102;28;20050;-80
2022/04/04 10:55:29;;;;;;;2.67;1.05;;;;;;;;;;4971219;28;20090;-81
2022/04/04 10:57:59;;;;;;;1.67;0.98;;;;;;;;;;4968729;28;20042;-81
2022/04/04 11:00:35;;;;;;;1.17;0.52;;;;;;;;;;4983891;28;20417;-81
2022/04/04 11:03:04;;;;;;;;;;;;;;;;;;4977491;28;20126;-80
2022/04/04 11:08:32;;;;;;;0.75;0.50;;;;;;;;;;4983249;28;20658;-80
2022/04/04 11:10:59;;;;;;;0.60;0.45;;;;;;;;;;4968879;28;20031;-80
2022/04/04 11:13:25;;;;;;;0.90;0.85;;;;;;;;;;4980830;28;20466;-81
2022/04/04 11:15:55;;;;;;;4.13;1.00;;;;;;;;;;4961481;28;20581;-80
2022/04/04 11:18:22;;;;;;;1.58;1.25;;;;;;;;;;4961085;28;20023;-80
2022/04/04 11:20:50;;;;;;;0.63;0.43;;;;;;;;;;4959163;28;20034;-81
2022/04/04 11:23:17;;;;;;;0.73;0.70;;;;;;;;;;4976103;28;20042;-80
2022/04/04 11:25:52;;;;;;;0.38;0.30;;;;;;;;;;4967626;28;20034;-80
2022/04/04 11:28:20;;;;;;;0.77;0.63;;;;;;;;;;4963616;28;20396;-81
2022/04/04 11:30:47;;;;;;;0.43;0.43;;;;;;;;;;4979199;28;20030;-80
2022/04/04 11:33:22;;;;;;;0.52;0.28;;;;;;;;;;4976488;28;20081;-81
2022/04/04 11:35:49;;;;;;;6.75;0.57;;;;;;;;;;4960432;28;20391;-80
2022/04/04 11:38:18;;;;;;;0.63;0.32;;;;;;;;;;4957267;28;20045;-81
2022/04/04 11:40:49;;;;;;;1.13;0.63;;;;;;;;;;4961415;28;20034;-80
2022/04/04 11:43:19;;;;;;;2.42;1.10;;;;;;;;;;4961526;28;20852;-81
2022/04/04 11:45:46;;;;;;;1.58;0.70;;;;;;;;;;4961446;28;20031;-82
2022/04/04 11:48:14;;;;;;;4.10;0.85;;;;;;;;;;4975453;28;20620;-80
2022/04/04 11:50:42;;;;;;;1.35;0.38;;;;;;;;;;4978613;28;20026;-80
2022/04/04 11:53:14;;;;;;;0.30;0.30;;;;;;;;;;4973082;28;20688;-79
2022/04/04 11:55:41;;;;;;;3.78;0.65;;;;;;;;;;4973101;28;20041;-80
2022/04/04 11:58:15;;;;;;;1.15;0.57;;;;;;;;;;4980750;28;20113;-79
2022/04/04 12:00:43;;;;;;;0.35;0.30;;;;;;;;;;4977031;28;20486;-79
2022/04/04 12:03:13;;;;;;;1.15;0.30;;;;;;;;;;4976827;28;20142;-79
2022/04/04 12:05:43;;;;;;;0.73;0.47;;;;;;;;;;4983708;28;20159;-79
2022/04/04 12:08:10;;;;;;;0.25;0.25;;;;;;;;;;4965754;28;20141;-79
2022/04/04 12:10:37;;;;;;;1.20;0.60;;;;;;;;;;4978564;28;20061;-80
2022/04/04 12:13:03;;;;;;;1.52;0.55;;;;;;;;;;4966411;28;20038;-79
2022/04/04 12:15:34;;;;;;;0.73;0.43;;;;;;;;;;4974744;28;20019;-80
2022/04/04 12:18:00;;;;;;;1.10;0.60;;;;;;;;;;4964446;28;20835;-80
2022/04/04 12:20:32;;;;;;;1.10;0.20;;;;;;;;;;4978520;28;20030;-80
2022/04/04 12:25:43;;;;;;;0.77;0.60;;;;;;;;;;4968972;28;20065;-80
2022/04/04 12:28:09;;;;;;;0.10;0.10;;;;;;;;;;4981413;28;20041;-80
2022/04/04 12:30:36;;;;;;;1.58;0.50;;;;;;;;;;4957646;28;20058;-80
2022/04/04 12:33:13;;;;;;;0.60;0.50;;;;;;;;;;4969156;28;20068;-80
2022/04/04 12:35:43;;;;;;;2.15;0.85;;;;;;;;;;4967309;28;20034;-79
2022/04/04 12:38:10;;;;;;;3.22;0.50;;;;;;;;;;4961054;28;20038;-80
2022/04/04 12:40:38;;;;;;;1.00;0.30;;;;;;;;;;4958284;28;20828;-80
2022/04/04 12:43:05;;;;;;;0.52;0.30;;;;;;;;;;4965845;28;20504;-80
2022/04/04 12:45:32;;;;;;;1.10;0.43;;;;;;;;;;4965000;28;20286;-80
2022/04/04 12:47:58;;;;;;;1.23;0.80;;;;;;;;;;4962223;28;20839;-80
2022/04/04 12:50:25;;;;;;;2.47;0.90;;;;;;;;;;4965715;28;20549;-79
2022/04/04 12:53:04;;;;;;;2.45;0.65;;;;;;;;;;4962635;28;20073;-80
2022/04/04 12:55:30;;;;;;;5.95;0.90;;;;;;;;;;4958934;28;20026;-79
2022/04/04 12:57:56;;;;;;;0.88;0.28;;;;;;;;;;4977395;28;20213;-79
2022/04/04 13:00:35;;;;;;;0.40;0.40;;;;;;;;;;4976774;28;20081;-80
2022/04/04 13:03:17;;;;;;;4.80;2.40;;;;;;;;;;4975099;28;20076;-80
2022/04/04 13:05:55;;;;;;;1.30;0.43;;;;;;;;;;4959145;28;20061;-80
2022/04/04 13:08:28;;;;;;;0.93;0.55;;;;;;;;;;4957715;28;20033;-80
2022/04/04 13:11:04;;;;;;;1.27;0.93;;;;;;;;;;4964104;28;20606;-79
2022/04/04 13:13:37;;;;;;;1.13;0.93;;;;;;;;;;4968090;28;20459;-80
2022/04/04 13:16:04;;;;;;;0.88;0.73;;;;;;;;;;4959332;28;20046;-80
2022/04/04 13:18:30;;;;;;;2.80;0.60;;;;;;;;;;4965135;28;20485;-79
2022/04/04 13:20:56;;;;;;;1.73;0.68;;;;;;;;;;4966188;28;20045;-80
2022/04/04 13:23:22;;;;;;;4.88;0.55;;;;;;;;;;4978106;28;20122;-79
2022/04/04 13:25:50;;;;;;;0.82;0.80;;;;;;;;;;4971052;28;20055;-78
2022/04/04 13:28:16;;;;;;;2.25;1.33;;;;;;;;;;4963449;28;20525;-79
2022/04/04 13:30:43;;;;;;;1.23;0.93;;;;;;;;;;4967071;28;20026;-80
2022/04/04 13:33:09;;;;;;;2.15;1.05;;;;;;;;;;4980977;28;20034;-79
2022/04/04 13:35:35;;;;;;;1.15;0.90;;;;;;;;;;4961346;28;20085;-79
2022/04/04 13:38:02;;;;;;;1.45;0.98;;;;;;;;;;4963232;28;20061;-79
2022/04/04 13:40:28;;;;;;;1.77;1.02;;;;;;;;;;4972645;28;20040;-79
2022/04/04 13:42:54;;;;;;;1.55;1.25;;;;;;;;;;4972024;28;20287;-79
2022/04/04 13:45:20;;;;;;;1.02;0.68;;;;;;;;;;4964753;28;20037;-80
2022/04/04 13:47:46;;;;;;;2.80;1.23;;;;;;;;;;4977943;28;20834;-80
2022/04/04 13:50:12;;;;;;;0.80;0.43;;;;;;;;;;4966757;28;20117;-80
2022/04/04 13:52:40;;;;;;;1.92;1.27;;;;;;;;;;4963225;28;20041;-81
2022/04/04 13:55:08;;;;;;;4.45;1.67;;;;;;;;;;4963146;28;20038;-80
2022/04/04 13:57:35;;;;;;;4.65;2.00;;;;;;;;;;4964839;28;20451;-80
2022/04/04 14:00:01;;;;;;;1.73;0.90;;;;;;;;;;4972822;28;20109;-80
2022/04/04 14:02:27;;;;;;;0.77;0.63;;;;;;;;;;4959598;28;20044;-80
2022/04/04 14:04:53;;;;;;;4.47;1.17;;;;;;;;;;4960929;28;20041;-80
2022/04/04 14:07:19;;;;;;;1.80;1.13;;;;;;;;;;4964591;28;20371;-80
2022/04/04 14:09:46;;;;;;;1.60;1.13;;;;;;;;;;4959303;28;20410;-80
2022/04/04 14:12:12;;;;;;;3.58;1.08;;;;;;;;;;4962509;28;20026;-81
2022/04/04 14:14:39;;;;;;;7.65;1.85;;;;;;;;;;4964333;28;20042;-81
2022/04/04 14:17:06;;;;;;;4.20;1.65;;;;;;;;;;4962641;28;20069;-80
2022/04/04 14:19:32;;;;;;;1.55;0.95;;;;;;;;;;4964342;28;20061;-80
2022/04/04 14:21:58;;;;;;;5.57;2.28;;;;;;;;;;4965379;28;20026;-80
2022/04/04 14:24:24;;;;;;;8.20;1.77;;;;;;;;;;4961432;28;20140;-80
2022/04/04 14:26:52;;;;;;;3.72;1.50;;;;;;;;;;4961320;28;20440;-80
2022/04/04 14:29:18;;;;;;;8.82;2.35;;;;;;;;;;4973670;28;20604;-81
2022/04/04 14:31:44;;;;;;;11.00;3.10;;;;;;;;;;4960762;28;20037;-81
2022/04/04 14:34:11;;;;;;;12.98;2.30;;;;;;;;;;4957918;28;20023;-80
2022/04/04 14:36:38;;;;;;;19.95;3.15;;;;;;;;;;4961762;28;20648;-81
2022/04/04 14:39:07;;;;;;;20.02;3.50;;;;;;;;;;4958227;28;20070;-80
2022/04/04 14:41:33;;;;;;;11.73;2.25;;;;;;;;;;4966197;28;20122;-81
2022/04/04 14:43:59;;;;;;;19.30;3.40;;;;;;;;;;4957016;28;20047;-81
2022/04/04 14:46:25;;;;;;;19.20;2.45;;;;;;;;;;4976919;28;20066;-81
2022/04/04 14:48:52;;;;;;;9.13;1.80;;;;;;;;;;4962339;28;20062;-81